Time;durP1;ratioP1;P1;durP2;ratioP2;P2;SDS_P1;SDS_P2;PMS_P1;PMS_P2;Temp;Humidity;BMP_temperature;BMP_pressure;BME280_temperature;BME280_humidity;BME280_pressure;Samples;Min_cycle;Max_cycle;Signal;HPM_P1;HPM_P2
2023/11/09 00:00:08;;;;;;;0.10;0.00;;;;;;;7.08;79.68;100418.84;4989171;28;20496;-75
2023/11/09 00:02:35;;;;;;;0.20;0.10;;;;;;;7.09;80.08;100419.72;4991120;28;20502;-76
2023/11/09 00:05:04;;;;;;;0.10;0.00;;;;;;;7.07;79.90;100424.94;4992385;28;20054;-75
2023/11/09 00:07:31;;;;;;;0.00;0.00;;;;;;;7.06;79.82;100423.22;4988354;28;20053;-76
2023/11/09 00:10:00;;;;;;;0.10;0.10;;;;;;;7.06;79.97;100424.94;4989368;28;20042;-75
2023/11/09 00:12:28;;;;;;;0.30;0.10;;;;;;;7.05;79.75;100423.22;4990430;28;20193;-75
2023/11/09 00:14:55;;;;;;;0.00;0.00;;;;;;;7.01;79.98;100421.53;4989338;28;20061;-75
2023/11/09 00:17:22;;;;;;;0.00;0.00;;;;;;;7.03;79.81;100422.34;4989241;28;20415;-75
2023/11/09 00:19:49;;;;;;;12.45;0.20;;;;;;;7.03;79.93;100427.56;4990363;28;20043;-75
2023/11/09 00:22:17;;;;;;;0.45;0.45;;;;;;;7.02;79.96;100428.44;4987068;28;20047;-72
2023/11/09 00:24:44;;;;;;;0.00;0.00;;;;;;;6.94;79.55;100416.41;4988986;28;20105;-72
2023/11/09 00:27:17;;;;;;;1.48;0.10;;;;;;;7.01;79.92;100432.78;4986796;28;20051;-71
2023/11/09 00:29:45;;;;;;;1.55;0.10;;;;;;;7.01;79.96;100431.91;4987011;28;20060;-71
2023/11/09 00:32:12;;;;;;;0.03;0.00;;;;;;;6.98;80.24;100431.06;4989912;28;20384;-73
2023/11/09 00:34:39;;;;;;;1.55;0.00;;;;;;;6.95;79.90;100428.50;4988781;28;20046;-73
2023/11/09 00:37:05;;;;;;;1.10;0.10;;;;;;;6.97;79.97;100431.97;4989981;28;20046;-73
2023/11/09 00:39:34;;;;;;;0.10;0.00;;;;;;;6.97;79.88;100437.16;4988147;28;20053;-73
2023/11/09 00:42:00;;;;;;;0.15;0.15;;;;;;;6.96;80.07;100432.81;4989510;28;20443;-74
2023/11/09 00:44:27;;;;;;;2.03;0.10;;;;;;;6.92;79.75;100438.91;4983485;28;20050;-73
2023/11/09 00:46:54;;;;;;;0.40;0.10;;;;;;;6.95;79.86;100438.03;4981305;28;20061;-73
2023/11/09 00:49:21;;;;;;;0.50;0.00;;;;;;;6.93;79.95;100439.78;4980499;28;20058;-73
2023/11/09 00:51:48;;;;;;;0.00;0.00;;;;;;;6.93;80.16;100440.63;4979540;28;20415;-73
2023/11/09 00:54:15;;;;;;;0.03;0.03;;;;;;;6.93;79.94;100445.81;4978906;28;20126;-73
2023/11/09 00:56:43;;;;;;;0.68;0.00;;;;;;;6.91;80.27;100444.97;4983737;28;20499;-76
2023/11/09 00:59:10;;;;;;;1.67;0.10;;;;;;;6.91;80.18;100431.97;4982582;28;20054;-73
2023/11/09 01:01:37;;;;;;;0.50;0.10;;;;;;;6.91;79.76;100446.72;4983233;28;20058;-72
2023/11/09 01:04:05;;;;;;;0.10;0.00;;;;;;;6.89;79.68;100444.16;4983418;28;20046;-73
2023/11/09 01:06:32;;;;;;;0.45;0.10;;;;;;;6.89;79.96;100445.88;4983846;28;20438;-73
2023/11/09 01:08:59;;;;;;;2.05;0.10;;;;;;;6.88;79.80;100441.53;4984557;28;20463;-72
2023/11/09 01:11:26;;;;;;;0.20;0.10;;;;;;;6.87;79.93;100443.28;4982152;28;20076;-74
2023/11/09 01:13:55;;;;;;;0.75;0.17;;;;;;;6.86;80.03;100441.56;4983309;28;20049;-73
2023/11/09 01:16:22;;;;;;;0.20;0.10;;;;;;;6.86;79.91;100454.56;4981797;28;20422;-74
2023/11/09 01:18:49;;;;;;;0.63;0.15;;;;;;;6.85;79.77;100437.22;4976899;28;20133;-74
2023/11/09 01:21:16;;;;;;;0.63;0.10;;;;;;;6.84;80.09;100445.91;4983917;28;20049;-73
2023/11/09 01:23:43;;;;;;;0.20;0.10;;;;;;;6.84;80.00;100450.25;4982052;28;20050;-74
2023/11/09 01:26:10;;;;;;;0.17;0.08;;;;;;;6.80;79.50;100439.00;4984496;28;20046;-73
2023/11/09 01:28:37;;;;;;;1.42;0.17;;;;;;;6.83;79.63;100433.81;4981082;28;20043;-73
2023/11/09 01:31:05;;;;;;;0.15;0.10;;;;;;;6.83;79.60;100440.72;4979505;28;20053;-76
2023/11/09 01:33:32;;;;;;;0.30;0.10;;;;;;;6.81;79.50;100440.75;4980122;28;20619;-76
2023/11/09 01:36:00;;;;;;;0.30;0.20;;;;;;;6.81;79.88;100445.94;4983260;28;20051;-76
2023/11/09 01:38:27;;;;;;;0.20;0.10;;;;;;;6.80;79.96;100440.75;4986031;28;20073;-76
2023/11/09 01:40:54;;;;;;;0.95;0.20;;;;;;;6.80;79.59;100439.00;4980293;28;20043;-75
2023/11/09 01:43:22;;;;;;;0.65;0.20;;;;;;;6.80;79.53;100444.19;4981894;28;20046;-75
2023/11/09 01:45:51;;;;;;;1.58;0.10;;;;;;;6.78;79.66;100439.91;4982571;28;20423;-74
2023/11/09 01:48:21;;;;;;;1.50;0.20;;;;;;;6.78;79.65;100445.09;4984919;28;20050;-75
2023/11/09 01:50:49;;;;;;;0.20;0.10;;;;;;;6.75;80.04;100440.81;4981454;28;20544;-75
2023/11/09 01:53:16;;;;;;;0.20;0.10;;;;;;;6.76;79.69;100435.56;4980851;28;20043;-75
2023/11/09 01:55:43;;;;;;;0.10;0.10;;;;;;;6.76;79.46;100432.97;4982101;28;20057;-75
2023/11/09 01:58:11;;;;;;;1.05;0.30;;;;;;;6.75;79.93;100414.84;4985613;28;20152;-76
2023/11/09 02:00:39;;;;;;;1.92;0.20;;;;;;;6.75;79.55;100412.25;4982212;28;20041;-75
2023/11/09 02:03:06;;;;;;;2.78;0.20;;;;;;;6.74;79.71;100420.88;4980569;28;20045;-75
2023/11/09 02:05:35;;;;;;;2.05;0.20;;;;;;;6.69;79.19;100415.75;4980755;28;20534;-75
2023/11/09 02:08:02;;;;;;;0.50;0.20;;;;;;;6.72;79.60;100422.66;4984888;28;20101;-75
2023/11/09 02:10:30;;;;;;;1.27;0.10;;;;;;;6.71;79.71;100408.78;4981365;28;20058;-76
2023/11/09 02:12:58;;;;;;;0.65;0.10;;;;;;;6.70;79.40;100422.66;4984935;28;20046;-75
2023/11/09 02:15:25;;;;;;;1.10;0.15;;;;;;;6.68;79.97;100420.94;4981702;28;20565;-76
2023/11/09 02:17:53;;;;;;;3.72;0.10;;;;;;;6.65;79.72;100421.81;4982515;28;20049;-75
2023/11/09 02:20:21;;;;;;;0.20;0.10;;;;;;;6.67;79.45;100417.50;4986017;28;20054;-75
2023/11/09 02:22:53;;;;;;;0.75;0.20;;;;;;;6.67;79.34;100421.81;4979273;28;20047;-75
2023/11/09 02:25:22;;;;;;;0.20;0.10;;;;;;;6.65;79.38;100423.56;4981760;28;20054;-75
2023/11/09 02:27:49;;;;;;;0.20;0.10;;;;;;;6.63;79.33;100420.13;4985512;28;20078;-75
2023/11/09 02:30:16;;;;;;;0.30;0.20;;;;;;;6.64;79.88;100421.84;4979248;28;20217;-75
2023/11/09 02:32:42;;;;;;;0.15;0.10;;;;;;;6.62;79.42;100416.66;4981810;28;20050;-76
2023/11/09 02:35:09;;;;;;;0.93;0.10;;;;;;;6.59;79.44;100419.28;4986420;28;20479;-75
2023/11/09 02:37:37;;;;;;;0.50;0.20;;;;;;;6.62;79.53;100418.41;4977332;28;20049;-74
2023/11/09 02:40:06;;;;;;;0.30;0.20;;;;;;;6.59;79.41;100414.09;4982015;28;20047;-75
2023/11/09 02:42:34;;;;;;;2.38;0.20;;;;;;;6.56;79.65;100411.53;4979442;28;20062;-73
2023/11/09 02:45:01;;;;;;;0.35;0.20;;;;;;;6.51;79.13;100406.34;4979052;28;20054;-74
2023/11/09 02:47:28;;;;;;;0.30;0.20;;;;;;;6.57;79.14;100420.16;4981671;28;20160;-73
2023/11/09 02:49:55;;;;;;;0.20;0.20;;;;;;;6.58;79.44;100421.91;4980566;28;20415;-73
2023/11/09 02:52:21;;;;;;;0.22;0.10;;;;;;;6.56;79.56;100419.31;4980934;28;20057;-74
2023/11/09 02:54:48;;;;;;;0.25;0.10;;;;;;;6.55;79.13;100424.53;4983541;28;20054;-74
2023/11/09 02:57:15;;;;;;;2.25;0.10;;;;;;;6.49;79.41;100407.28;4980075;28;20046;-74
2023/11/09 02:59:44;;;;;;;0.17;0.10;;;;;;;6.52;79.58;100410.69;4981363;28;20046;-74
2023/11/09 03:02:11;;;;;;;0.60;0.17;;;;;;;6.52;79.71;100418.47;4980026;28;20050;-73
2023/11/09 03:04:39;;;;;;;2.38;0.20;;;;;;;6.52;79.46;100421.06;4983624;28;20061;-73
2023/11/09 03:07:08;;;;;;;2.30;0.20;;;;;;;6.50;79.25;100422.81;4981541;28;20120;-74
2023/11/09 03:09:37;;;;;;;1.10;0.10;;;;;;;6.50;79.62;100421.97;4980990;28;20065;-75
2023/11/09 03:12:06;;;;;;;1.70;0.10;;;;;;;6.49;79.55;100425.44;4983093;28;20047;-74
2023/11/09 03:14:34;;;;;;;0.10;0.10;;;;;;;6.47;79.35;100428.03;4980537;28;20054;-74
2023/11/09 03:17:06;;;;;;;3.25;0.20;;;;;;;6.45;79.58;100429.75;4982645;28;20105;-74
2023/11/09 03:19:35;;;;;;;0.40;0.13;;;;;;;6.46;79.22;100434.09;4980206;28;20070;-74
2023/11/09 03:22:02;;;;;;;2.15;0.20;;;;;;;6.46;79.73;100433.22;4982213;28;20458;-74
2023/11/09 03:24:29;;;;;;;0.30;0.10;;;;;;;6.45;79.74;100436.69;4982721;28;20062;-74
2023/11/09 03:26:56;;;;;;;0.22;0.10;;;;;;;6.44;79.35;100422.88;4978558;28;20050;-74
2023/11/09 03:29:23;;;;;;;0.30;0.20;;;;;;;6.42;79.42;100432.38;4979817;28;20050;-74
2023/11/09 03:31:51;;;;;;;1.38;0.13;;;;;;;6.41;79.95;100420.28;4976728;28;20050;-74
2023/11/09 03:34:19;;;;;;;0.20;0.10;;;;;;;6.41;79.79;100430.66;4981646;28;20443;-73
2023/11/09 03:36:46;;;;;;;0.77;0.13;;;;;;;6.40;79.48;100428.06;4974886;28;20050;-74
2023/11/09 03:39:13;;;;;;;1.13;0.20;;;;;;;6.41;79.63;100427.22;4981412;28;20046;-74
2023/11/09 03:41:40;;;;;;;0.73;0.20;;;;;;;6.39;79.51;100427.22;4976258;28;20047;-74
2023/11/09 03:44:07;;;;;;;0.30;0.20;;;;;;;6.34;79.54;100422.94;4981983;28;20047;-74
2023/11/09 03:46:34;;;;;;;0.50;0.50;;;;;;;6.37;79.13;100428.09;4980796;28;20059;-74
2023/11/09 03:49:02;;;;;;;2.92;0.13;;;;;;;6.35;79.12;100425.53;4981604;28;20072;-74
2023/11/09 03:51:31;;;;;;;0.17;0.10;;;;;;;6.33;78.96;100424.66;4982738;28;20047;-76
2023/11/09 03:53:57;;;;;;;0.40;0.15;;;;;;;6.32;78.85;100425.56;4981961;28;20051;-77
2023/11/09 03:56:24;;;;;;;0.52;0.10;;;;;;;6.29;79.32;100421.25;4984757;28;20487;-76
2023/11/09 03:58:52;;;;;;;1.25;0.17;;;;;;;6.28;78.95;100429.03;4985661;28;20052;-77
2023/11/09 04:01:19;;;;;;;0.40;0.20;;;;;;;6.25;79.01;100435.09;4979359;28;20050;-75
2023/11/09 04:03:46;;;;;;;0.22;0.10;;;;;;;6.23;78.50;100435.97;4977823;28;20046;-76
2023/11/09 04:06:17;;;;;;;0.65;0.20;;;;;;;6.20;78.54;100436.84;4979709;28;20494;-77
2023/11/09 04:08:46;;;;;;;0.20;0.10;;;;;;;6.18;78.60;100437.75;4979004;28;20542;-76
2023/11/09 04:11:12;;;;;;;0.25;0.10;;;;;;;6.15;78.46;100440.31;4983762;28;20426;-76
2023/11/09 04:13:39;;;;;;;0.38;0.10;;;;;;;6.12;78.53;100446.44;4980255;28;20062;-76
2023/11/09 04:16:08;;;;;;;2.47;0.10;;;;;;;6.10;78.53;100440.38;4978649;28;20061;-76
2023/11/09 04:18:36;;;;;;;0.30;0.20;;;;;;;5.92;78.24;100417.97;4982382;28;20145;-76
2023/11/09 04:21:04;;;;;;;0.20;0.10;;;;;;;6.04;78.63;100437.81;4979697;28;20051;-76
2023/11/09 04:23:31;;;;;;;0.50;0.20;;;;;;;6.00;78.51;100434.34;4980793;28;20114;-77
2023/11/09 04:25:59;;;;;;;0.88;0.20;;;;;;;5.99;78.39;100437.84;4979466;28;20055;-76
2023/11/09 04:28:32;;;;;;;0.30;0.10;;;;;;;5.97;78.57;100434.38;4979090;28;20122;-76
2023/11/09 04:31:00;;;;;;;2.22;0.20;;;;;;;5.93;78.20;100435.28;4984378;28;20062;-76
2023/11/09 04:33:27;;;;;;;0.40;0.15;;;;;;;5.90;77.97;100434.41;4978027;28;20516;-76
2023/11/09 04:35:55;;;;;;;0.30;0.13;;;;;;;5.86;77.92;100431.84;4979632;28;20061;-75
2023/11/09 04:38:23;;;;;;;0.50;0.20;;;;;;;5.83;78.17;100430.97;4978350;28;20057;-76
2023/11/09 04:40:55;;;;;;;0.20;0.10;;;;;;;5.81;78.19;100435.31;4982203;28;20050;-76
2023/11/09 04:43:23;;;;;;;0.63;0.20;;;;;;;5.77;77.86;100433.59;4982129;28;20168;-75
2023/11/09 04:45:53;;;;;;;0.25;0.13;;;;;;;5.73;78.26;100434.47;4982337;28;20049;-76
2023/11/09 04:48:20;;;;;;;0.40;0.10;;;;;;;5.70;78.22;100424.97;4984223;28;20484;-76
2023/11/09 04:50:55;;;;;;;1.02;0.20;;;;;;;5.68;77.83;100425.84;4985893;28;20050;-76
2023/11/09 04:53:30;;;;;;;0.30;0.20;;;;;;;5.63;77.69;100431.94;4985426;28;20116;-76
2023/11/09 04:56:04;;;;;;;0.52;0.20;;;;;;;5.60;77.73;100425.88;4982548;28;20359;-76
2023/11/09 04:58:47;;;;;;;1.67;0.20;;;;;;;5.57;77.99;100429.34;4979492;28;20647;-76
2023/11/09 05:06:52;;;;;;;0.30;0.20;;;;;;;5.45;78.01;100426.78;4987996;28;20158;-75
2023/11/09 05:09:20;;;;;;;0.40;0.20;;;;;;;5.41;77.95;100418.19;4983828;28;20919;-76
2023/11/09 05:11:47;;;;;;;2.17;0.20;;;;;;;5.39;77.82;100424.22;4983488;28;20057;-75
2023/11/09 05:14:15;;;;;;;3.92;0.15;;;;;;;5.36;77.91;100403.50;4985022;28;20054;-75
2023/11/09 05:16:42;;;;;;;0.32;0.15;;;;;;;5.34;78.07;100402.66;4982868;28;20455;-76
2023/11/09 05:19:09;;;;;;;1.92;0.15;;;;;;;5.33;78.13;100413.88;4984821;28;20065;-74
2023/11/09 05:21:37;;;;;;;0.30;0.10;;;;;;;5.30;77.96;100403.53;4984781;28;20384;-72
2023/11/09 05:24:04;;;;;;;0.10;0.10;;;;;;;5.28;77.94;100402.69;4984875;28;20050;-74
2023/11/09 05:26:33;;;;;;;4.78;0.22;;;;;;;5.27;78.11;100406.13;4982451;28;20055;-73
2023/11/09 05:29:00;;;;;;;0.40;0.20;;;;;;;5.24;77.96;100406.16;4982476;28;20051;-74
2023/11/09 05:31:29;;;;;;;0.17;0.10;;;;;;;5.23;78.01;100404.41;4981408;28;20061;-73
2023/11/09 05:33:56;;;;;;;1.10;0.25;;;;;;;5.21;77.99;100408.72;4980453;28;20043;-73
2023/11/09 05:36:23;;;;;;;0.43;0.20;;;;;;;5.19;78.03;100412.19;4982325;28;20047;-72
2023/11/09 05:38:50;;;;;;;0.45;0.25;;;;;;;5.18;78.07;100426.00;4984725;28;20054;-73
2023/11/09 05:41:17;;;;;;;0.68;0.20;;;;;;;5.17;78.05;100415.63;4980923;28;20403;-73
2023/11/09 05:43:44;;;;;;;0.80;0.20;;;;;;;5.15;78.09;100413.06;4982787;28;20046;-73
2023/11/09 05:46:11;;;;;;;5.28;0.20;;;;;;;5.14;78.44;100411.31;4982815;28;20038;-75
2023/11/09 05:48:40;;;;;;;0.93;0.20;;;;;;;5.14;78.29;100416.50;4982213;28;20057;-74
2023/11/09 05:51:07;;;;;;;0.20;0.20;;;;;;;5.12;78.43;100415.66;4984576;28;20055;-74
2023/11/09 05:53:35;;;;;;;2.15;0.30;;;;;;;5.11;78.75;100424.28;4984260;28;20085;-73
2023/11/09 05:56:03;;;;;;;0.50;0.30;;;;;;;5.10;78.57;100432.94;4981790;28;20511;-74
2023/11/09 05:58:30;;;;;;;0.60;0.30;;;;;;;5.10;78.62;100438.09;4982067;28;20058;-74
2023/11/09 06:00:57;;;;;;;0.50;0.30;;;;;;;5.10;78.77;100438.09;4982930;28;20050;-74
2023/11/09 06:03:24;;;;;;;2.72;0.30;;;;;;;5.06;78.87;100435.50;4983123;28;20061;-73
2023/11/09 06:05:52;;;;;;;0.63;0.40;;;;;;;5.08;78.83;100439.81;4982142;28;21530;-74
2023/11/09 06:08:19;;;;;;;0.35;0.30;;;;;;;5.07;78.90;100448.47;4980417;28;20514;-74
2023/11/09 06:10:47;;;;;;;1.48;0.40;;;;;;;5.08;79.00;100447.59;4983773;28;20054;-75
2023/11/09 06:13:14;;;;;;;1.38;0.40;;;;;;;5.08;78.83;100442.41;4984666;28;20459;-75
2023/11/09 06:15:42;;;;;;;2.35;0.40;;;;;;;5.09;78.98;100443.28;4984546;28;20053;-75
2023/11/09 06:18:10;;;;;;;2.25;0.45;;;;;;;5.05;79.26;100436.38;4985365;28;20100;-75
2023/11/09 06:20:37;;;;;;;0.82;0.50;;;;;;;5.08;79.16;100439.81;4982116;28;20570;-72
2023/11/09 06:23:06;;;;;;;1.65;0.40;;;;;;;5.08;79.25;100438.97;4984329;28;20419;-72
2023/11/09 06:25:33;;;;;;;2.60;0.60;;;;;;;5.09;79.24;100443.28;4984272;28;20132;-72
2023/11/09 06:28:02;;;;;;;1.75;0.95;;;;;;;5.09;79.26;100444.13;4981563;28;20418;-72
2023/11/09 06:30:29;;;;;;;1.90;1.15;;;;;;;5.09;79.46;100451.03;4977056;28;20051;-72
2023/11/09 06:32:56;;;;;;;5.30;1.48;;;;;;;5.09;79.80;100446.72;4980936;28;20062;-72
2023/11/09 06:35:23;;;;;;;1.70;1.30;;;;;;;5.11;79.74;100454.50;4982858;28;20045;-72
2023/11/09 06:37:50;;;;;;;1.98;1.15;;;;;;;5.12;79.58;100451.03;4978001;28;20050;-72
2023/11/09 06:40:18;;;;;;;2.03;0.88;;;;;;;5.08;79.78;100446.72;4983053;28;20133;-72
2023/11/09 06:42:49;;;;;;;2.83;1.90;;;;;;;5.14;79.82;100457.94;4980468;28;20047;-72
2023/11/09 06:45:16;;;;;;;11.52;3.22;;;;;;;5.10;80.09;100456.22;4979941;28;20065;-75
2023/11/09 06:47:45;;;;;;;8.82;3.13;;;;;;;5.12;79.97;100457.09;4981864;28;20046;-72
2023/11/09 06:50:12;;;;;;;5.18;3.40;;;;;;;5.16;80.08;100466.56;4978911;28;20066;-72
2023/11/09 06:52:41;;;;;;;4.75;2.90;;;;;;;5.18;80.07;100457.09;4982408;28;20069;-73
2023/11/09 06:55:09;;;;;;;301.23;24.92;;;;;;;5.19;80.23;100463.97;4981598;28;20048;-72
2023/11/09 06:57:39;;;;;;;120.90;11.60;;;;;;;5.19;80.25;100458.78;4987145;28;20483;-71
2023/11/09 07:00:10;;;;;;;613.03;76.25;;;;;;;5.19;80.31;100450.16;4987639;28;20046;-72
2023/11/09 07:02:37;;;;;;;174.88;19.23;;;;;;;5.23;80.44;100458.78;4987709;28;20116;-72
2023/11/09 07:05:05;;;;;;;121.57;24.98;;;;;;;5.26;80.77;100458.78;4985472;28;20589;-72
2023/11/09 07:07:32;;;;;;;42.15;4.88;;;;;;;5.28;80.58;100454.47;4988048;28;20074;-72
2023/11/09 07:09:59;;;;;;;11.15;2.70;;;;;;;5.28;80.64;100460.50;4988718;28;20403;-71
2023/11/09 07:12:26;;;;;;;13.90;2.78;;;;;;;5.30;80.70;100450.16;4986557;28;20582;-71
2023/11/09 07:14:54;;;;;;;5.82;2.17;;;;;;;5.32;80.90;100448.41;4988399;28;20046;-72
2023/11/09 07:17:22;;;;;;;1999.90;377.33;;;;;;;5.24;81.13;100430.31;4985575;28;20056;-72
2023/11/09 07:19:49;;;;;;;1542.05;203.65;;;;;;;5.36;81.21;100451.00;4989753;28;20046;-72
2023/11/09 07:22:16;;;;;;;1999.90;881.47;;;;;;;5.37;81.06;100455.28;4985092;28;20048;-73
2023/11/09 07:24:44;;;;;;;146.52;36.17;;;;;;;5.40;81.28;100446.66;4987736;28;20050;-74
2023/11/09 07:27:11;;;;;;;74.70;12.95;;;;;;;5.42;81.20;100457.88;4987668;28;20507;-80
2023/11/09 07:29:39;;;;;;;13.65;3.75;;;;;;;5.43;81.25;100462.19;4989497;28;20054;-78
2023/11/09 07:32:08;;;;;;;15.20;3.47;;;;;;;5.45;81.62;100457.88;4984551;28;20201;-69
2023/11/09 07:34:35;;;;;;;18.67;3.38;;;;;;;5.47;81.35;100461.34;4985791;28;20053;-73
2023/11/09 07:37:03;;;;;;;1999.90;885.63;;;;;;;5.49;81.46;100464.75;4986439;28;20047;-72
2023/11/09 07:39:30;;;;;;;802.88;121.00;;;;;;;5.52;81.86;100461.31;4979730;28;20050;-72
2023/11/09 07:41:59;;;;;;;184.70;22.25;;;;;;;5.55;81.66;100462.19;4984293;28;20053;-70
2023/11/09 07:44:27;;;;;;;97.68;12.30;;;;;;;5.56;81.91;100458.72;4987036;28;20046;-70
2023/11/09 07:46:54;;;;;;;46.45;7.80;;;;;;;5.55;81.59;100449.22;4985283;28;20054;-70
2023/11/09 07:49:23;;;;;;;25.02;3.03;;;;;;;5.62;81.58;100457.81;4986573;28;20431;-71
2023/11/09 07:51:50;;;;;;;16.63;2.45;;;;;;;5.64;81.87;100456.09;4986015;28;20060;-71
2023/11/09 07:54:19;;;;;;;8.18;1.38;;;;;;;5.67;81.81;100456.09;4986034;28;20049;-72
2023/11/09 07:56:45;;;;;;;1.58;0.90;;;;;;;5.68;81.74;100451.75;4987474;28;20046;-70
2023/11/09 07:59:13;;;;;;;3.60;1.00;;;;;;;5.71;81.73;100456.94;4985815;28;20042;-70
2023/11/09 08:01:40;;;;;;;3.33;1.23;;;;;;;5.71;81.80;100452.59;4987357;28;20051;-70
2023/11/09 08:04:08;;;;;;;1.88;0.95;;;;;;;5.73;81.74;100452.63;4986833;28;20039;-70
2023/11/09 08:06:37;;;;;;;1.52;0.60;;;;;;;5.75;81.71;100454.34;4987606;28;20078;-70
2023/11/09 08:09:05;;;;;;;0.90;0.70;;;;;;;5.76;81.46;100450.00;4980727;28;20059;-70
2023/11/09 08:11:32;;;;;;;0.90;0.60;;;;;;;5.76;81.61;100456.06;4986558;28;20134;-71
2023/11/09 08:13:59;;;;;;;1.70;0.98;;;;;;;5.79;81.74;100450.84;4984120;28;20731;-71
2023/11/09 08:16:26;;;;;;;1.33;0.73;;;;;;;5.81;81.64;100451.72;4990824;28;20055;-71
2023/11/09 08:18:55;;;;;;;0.80;0.47;;;;;;;5.82;81.86;100453.44;4988645;28;20052;-71
2023/11/09 08:21:25;;;;;;;2.35;0.70;;;;;;;5.85;81.36;100449.97;4991033;28;20053;-73
2023/11/09 08:23:53;;;;;;;0.90;0.50;;;;;;;5.86;81.59;100457.75;4986815;28;20121;-74
2023/11/09 08:26:20;;;;;;;0.80;0.60;;;;;;;5.89;81.81;100454.28;4990324;28;20054;-73
2023/11/09 08:28:47;;;;;;;1.20;0.50;;;;;;;5.92;81.56;100453.38;4989960;28;20410;-70
2023/11/09 08:31:13;;;;;;;4.20;1.73;;;;;;;5.93;81.64;100457.72;4992954;28;20050;-71
2023/11/09 08:33:40;;;;;;;1.80;0.55;;;;;;;5.94;81.67;100457.72;4991146;28;20056;-71
2023/11/09 08:36:10;;;;;;;1.23;0.60;;;;;;;5.96;82.23;100449.97;4991088;28;20053;-73
2023/11/09 08:38:39;;;;;;;2.15;0.50;;;;;;;5.98;81.44;100441.31;4987660;28;20053;-73
2023/11/09 08:41:07;;;;;;;1.60;0.60;;;;;;;6.01;81.48;100445.63;4988294;28;20451;-74
2023/11/09 08:43:34;;;;;;;1.60;0.50;;;;;;;6.02;81.66;100443.00;4990764;28;20058;-78
2023/11/09 08:46:02;;;;;;;0.70;0.55;;;;;;;6.05;81.91;100447.31;4987172;28;20573;-76
2023/11/09 08:48:30;;;;;;;0.65;0.57;;;;;;;6.07;81.83;100445.59;4990943;28;20703;-79
2023/11/09 08:51:00;;;;;;;0.47;0.40;;;;;;;6.10;81.77;100447.31;4992912;28;20097;-75
2023/11/09 08:53:29;;;;;;;0.50;0.40;;;;;;;6.12;81.80;100443.84;4991830;28;20054;-75
2023/11/09 08:55:56;;;;;;;8.80;0.63;;;;;;;6.14;81.75;100441.22;4989733;28;20052;-73
2023/11/09 08:58:24;;;;;;;0.70;0.40;;;;;;;6.15;81.57;100448.09;4984270;28;20054;-74
2023/11/09 09:00:53;;;;;;;1.20;0.40;;;;;;;6.18;81.45;100448.97;4989697;28;20053;-72
2023/11/09 09:03:21;;;;;;;0.45;0.30;;;;;;;6.19;81.42;100442.91;4989606;28;20054;-76
2023/11/09 09:05:47;;;;;;;0.40;0.30;;;;;;;6.19;81.25;100445.50;4988855;28;20471;-76
2023/11/09 09:08:14;;;;;;;0.50;0.30;;;;;;;6.20;81.51;100436.84;4991323;28;20085;-73
2023/11/09 09:10:42;;;;;;;1.95;0.40;;;;;;;6.21;81.31;100430.81;4987135;28;20057;-74
2023/11/09 09:13:08;;;;;;;0.40;0.20;;;;;;;6.23;81.75;100441.16;4990088;28;20046;-73
2023/11/09 09:15:39;;;;;;;1.13;0.43;;;;;;;6.26;81.32;100448.91;4987676;28;20597;-74
2023/11/09 09:18:09;;;;;;;3.13;0.30;;;;;;;6.27;81.51;100443.72;4985324;28;20050;-76
2023/11/09 09:20:37;;;;;;;4.00;0.50;;;;;;;6.30;81.69;100448.03;4988668;28;20148;-75
2023/11/09 09:23:05;;;;;;;0.30;0.20;;;;;;;6.30;81.37;100443.72;4990985;28;20046;-75
2023/11/09 09:25:31;;;;;;;0.95;0.20;;;;;;;6.31;81.40;100444.56;4986535;28;20061;-76
2023/11/09 09:27:58;;;;;;;2.20;0.20;;;;;;;6.34;81.37;100446.28;4989998;28;20046;-76
2023/11/09 09:30:26;;;;;;;4.90;0.30;;;;;;;6.35;81.57;100446.28;4986596;28;20503;-76
2023/11/09 09:32:56;;;;;;;0.40;0.28;;;;;;;6.37;81.17;100439.31;4989122;28;20388;-75
2023/11/09 09:35:25;;;;;;;0.25;0.20;;;;;;;6.39;81.03;100431.56;4990448;28;20517;-75
2023/11/09 09:37:52;;;;;;;0.40;0.30;;;;;;;6.41;81.31;100440.19;4987683;28;20045;-75
2023/11/09 09:40:23;;;;;;;0.25;0.20;;;;;;;6.41;80.90;100435.84;4988502;28;20049;-74
2023/11/09 09:42:51;;;;;;;0.50;0.30;;;;;;;6.43;80.98;100428.94;4987877;28;20050;-75
2023/11/09 09:45:19;;;;;;;0.32;0.30;;;;;;;6.44;80.83;100425.47;4989054;28;20050;-76
2023/11/09 09:47:48;;;;;;;1.05;0.73;;;;;;;6.45;81.33;100421.97;4987904;28;20050;-72
2023/11/09 09:50:17;;;;;;;0.47;0.30;;;;;;;6.49;81.10;100421.09;4989763;28;20475;-75
2023/11/09 09:52:46;;;;;;;0.40;0.30;;;;;;;6.50;81.28;100425.41;4988619;28;20528;-78
2023/11/09 09:55:15;;;;;;;0.50;0.47;;;;;;;6.51;81.23;100432.31;4983952;28;20072;-78
2023/11/09 09:57:44;;;;;;;0.40;0.30;;;;;;;6.43;81.50;100413.38;4986613;28;20042;-83
2023/11/09 10:00:16;;;;;;;0.63;0.30;;;;;;;6.57;81.44;100427.94;4983035;28;20829;-79
2023/11/09 10:02:44;;;;;;;0.50;0.30;;;;;;;6.57;81.24;100426.22;4989920;28;20073;-84
2023/11/09 10:05:12;;;;;;;0.57;0.30;;;;;;;6.58;81.22;100419.31;4989808;28;20050;-79
2023/11/09 10:08:00;;;;;;;0.63;0.30;;;;;;;6.61;81.38;100411.50;4986492;28;20054;-79
2023/11/09 10:10:29;;;;;;;0.47;0.30;;;;;;;6.62;81.50;100421.84;4989191;28;20072;-77
2023/11/09 10:12:56;;;;;;;0.70;0.40;;;;;;;6.64;81.52;100420.13;4988353;28;20046;-77
2023/11/09 10:15:24;;;;;;;2.47;0.28;;;;;;;6.66;81.59;100420.97;4993327;28;20921;-77
2023/11/09 10:17:52;;;;;;;0.47;0.30;;;;;;;6.67;81.47;100416.63;4986404;28;20186;-78
2023/11/09 10:20:20;;;;;;;2.92;0.43;;;;;;;6.70;81.30;100411.41;4982129;28;20058;-78
2023/11/09 10:22:47;;;;;;;1.95;0.30;;;;;;;6.73;81.53;100416.59;4977118;28;20428;-78
2023/11/09 10:25:17;;;;;;;4.07;0.57;;;;;;;6.75;81.65;100414.84;4985484;28;20053;-76
2023/11/09 10:27:47;;;;;;;88.47;20.75;;;;;;;6.76;81.49;100408.75;4985749;28;20042;-76
2023/11/09 10:30:16;;;;;;;6.38;1.25;;;;;;;6.78;82.00;100409.63;4986468;28;20061;-76
2023/11/09 10:32:44;;;;;;;9.00;1.17;;;;;;;6.81;81.51;100408.75;4986636;28;20054;-75
2023/11/09 10:35:13;;;;;;;70.57;14.88;;;;;;;6.83;81.49;100417.34;4989624;28;20410;-76
2023/11/09 10:37:43;;;;;;;1.40;0.43;;;;;;;6.85;81.64;100410.41;4983858;28;20058;-76
2023/11/09 10:40:13;;;;;;;53.85;8.75;;;;;;;6.87;81.62;100400.88;4991053;28;20052;-75
2023/11/09 10:42:43;;;;;;;0.45;0.30;;;;;;;6.89;81.59;100405.19;4988385;28;20047;-77
2023/11/09 10:45:13;;;;;;;0.70;0.20;;;;;;;6.91;82.00;100410.34;4988211;28;20050;-77
2023/11/09 10:47:41;;;;;;;0.30;0.20;;;;;;;6.90;81.74;100393.91;4980430;28;20046;-77
2023/11/09 10:50:13;;;;;;;0.60;0.20;;;;;;;6.95;81.80;100394.75;4988951;28;20050;-76
2023/11/09 10:52:43;;;;;;;0.40;0.25;;;;;;;6.96;82.07;100387.81;4978918;28;20046;-79
2023/11/09 10:55:12;;;;;;;0.75;0.10;;;;;;;6.98;81.93;100388.66;4991126;28;20439;-79
2023/11/09 10:57:43;;;;;;;0.50;0.17;;;;;;;6.99;81.95;100378.25;4983042;28;20051;-79
2023/11/09 11:00:26;;;;;;;0.43;0.30;;;;;;;7.02;81.98;100390.34;4986652;28;21434;-74
2023/11/09 11:02:55;;;;;;;0.10;0.10;;;;;;;7.04;81.62;100379.94;4994458;28;20526;-79
2023/11/09 11:05:27;;;;;;;0.20;0.20;;;;;;;7.06;81.71;100384.25;4990954;28;20054;-80
2023/11/09 11:08:01;;;;;;;0.57;0.30;;;;;;;7.08;81.78;100374.69;4989131;28;20388;-79
2023/11/09 11:10:31;;;;;;;0.20;0.10;;;;;;;7.10;82.08;100379.88;4982445;28;20089;-79
2023/11/09 11:13:03;;;;;;;1.30;0.20;;;;;;;7.12;81.97;100381.59;4986153;28;20728;-79
2023/11/09 11:15:55;;;;;;;0.50;0.20;;;;;;;7.10;81.70;100364.28;4988621;28;20054;-80
2023/11/09 11:18:39;;;;;;;0.13;0.10;;;;;;;7.15;82.01;100365.97;4984595;28;20410;-79
2023/11/09 11:21:20;;;;;;;0.57;0.20;;;;;;;7.16;81.97;100366.81;4984551;28;20081;-80
2023/11/09 11:24:19;;;;;;;0.20;0.20;;;;;;;7.19;82.22;100366.78;4976871;28;20070;-80
2023/11/09 11:26:59;;;;;;;1.52;0.20;;;;;;;7.20;82.04;100360.75;4964884;28;20101;-80
2023/11/09 11:29:28;;;;;;;0.95;0.20;;;;;;;7.21;81.93;100359.84;4983941;28;20081;-79
2023/11/09 11:31:57;;;;;;;0.30;0.20;;;;;;;7.21;82.15;100352.91;4989476;28;20061;-79
2023/11/09 11:34:45;;;;;;;0.45;0.28;;;;;;;7.23;81.96;100355.50;4982633;28;20467;-80
2023/11/09 11:37:16;;;;;;;0.95;0.20;;;;;;;7.24;82.23;100348.56;4983068;28;20049;-80
2023/11/09 11:39:43;;;;;;;1.40;0.20;;;;;;;7.26;81.95;100339.00;4988430;28;20456;-80
2023/11/09 11:42:17;;;;;;;1.70;0.20;;;;;;;7.26;82.09;100345.06;4989509;28;20391;-79